Time;durP1;ratioP1;P1;durP2;ratioP2;P2;SDS_P1;SDS_P2;PMS_P1;PMS_P2;Temp;Humidity;BMP_temperature;BMP_pressure;BME280_temperature;BME280_humidity;BME280_pressure;Samples;Min_cycle;Max_cycle;Signal;HPM_P1;HPM_P2
2023/05/31 00:01:12;;;;;;;2.72;2.05;;;17.10;99.90;;;;;;5040662;28;20416;-80
2023/05/31 00:03:41;;;;;;;4.03;2.50;;;16.60;99.90;;;;;;5009502;28;20407;-80
2023/05/31 00:06:07;;;;;;;2.83;2.10;;;16.90;99.90;;;;;;5013042;28;20401;-81
2023/05/31 00:08:32;;;;;;;3.78;2.33;;;17.00;99.90;;;;;;5015920;28;20397;-80
2023/05/31 00:10:58;;;;;;;2.60;2.10;;;17.00;99.90;;;;;;5011541;28;20404;-79
2023/05/31 00:13:24;;;;;;;2.80;2.20;;;16.80;99.90;;;;;;5029456;28;20496;-80
2023/05/31 00:15:49;;;;;;;3.50;2.38;;;16.70;99.90;;;;;;5028254;28;20404;-79
2023/05/31 00:18:15;;;;;;;4.57;2.23;;;16.50;99.90;;;;;;5030276;28;20400;-79
2023/05/31 00:20:40;;;;;;;3.40;2.38;;;16.80;99.90;;;;;;5023504;28;20408;-79
2023/05/31 00:23:06;;;;;;;2.90;2.30;;;16.80;99.90;;;;;;5018223;28;20456;-81
2023/05/31 00:25:31;;;;;;;4.50;2.20;;;16.90;99.90;;;;;;5016263;28;20463;-80
2023/05/31 00:27:57;;;;;;;3.45;2.00;;;16.80;99.90;;;;;;5017040;28;20480;-80
2023/05/31 00:30:22;;;;;;;2.40;1.93;;;16.50;99.90;;;;;;5017739;28;20400;-80
2023/05/31 00:32:48;;;;;;;3.45;2.10;;;16.00;99.90;;;;;;5018112;28;20439;-80
2023/05/31 00:35:13;;;;;;;4.57;2.40;;;16.40;99.90;;;;;;5016420;28;20397;-79
2023/05/31 00:37:39;;;;;;;4.40;2.40;;;16.10;99.90;;;;;;5017644;28;20887;-79
2023/05/31 00:40:05;;;;;;;4.38;2.50;;;16.00;99.90;;;;;;5017086;28;20411;-81
2023/05/31 00:42:31;;;;;;;4.30;2.42;;;16.10;99.90;;;;;;5016430;28;20384;-80
2023/05/31 00:44:57;;;;;;;6.25;2.25;;;16.20;99.90;;;;;;5016931;28;20389;-81
2023/05/31 00:47:24;;;;;;;6.30;2.47;;;15.90;99.90;;;;;;5015313;28;20404;-80
2023/05/31 00:49:50;;;;;;;2.70;2.50;;;15.80;99.90;;;;;;5017639;28;20454;-80
2023/05/31 00:52:15;;;;;;;3.78;2.42;;;15.80;99.90;;;;;;5015384;28;20409;-80
2023/05/31 00:54:41;;;;;;;3.35;2.60;;;15.80;99.90;;;;;;5015941;28;20393;-81
2023/05/31 00:57:07;;;;;;;4.68;2.45;;;15.30;99.90;;;;;;5014614;28;20423;-81
2023/05/31 00:59:33;;;;;;;3.50;2.40;;;15.40;99.90;;;;;;5007754;28;20398;-79
2023/05/31 01:02:00;;;;;;;4.00;2.43;;;15.20;99.90;;;;;;5004273;28;20386;-80
2023/05/31 01:04:25;;;;;;;3.90;3.03;;;15.60;99.90;;;;;;5005547;28;20385;-80
2023/05/31 01:06:51;;;;;;;3.53;2.60;;;15.60;99.90;;;;;;5015684;28;20438;-81
2023/05/31 01:09:17;;;;;;;3.53;2.35;;;15.20;99.90;;;;;;5014408;28;20447;-80
2023/05/31 01:12:02;;;;;;;3.88;3.08;;;15.50;99.90;;;;;;5015916;28;20393;-81
2023/05/31 01:14:55;;;;;;;4.00;2.60;;;15.20;99.90;;;;;;5014733;28;20401;-80
2023/05/31 01:17:30;;;;;;;4.90;3.10;;;15.50;99.90;;;;;;5013596;28;20623;-80
2023/05/31 01:20:00;;;;;;;2.77;2.57;;;15.20;99.90;;;;;;5014482;28;20401;-80
2023/05/31 01:22:51;;;;;;;3.20;2.90;;;15.50;99.90;;;;;;5004022;28;20387;-80
2023/05/31 01:25:27;;;;;;;3.40;2.40;;;15.50;99.90;;;;;;4995503;28;20814;-80
2023/05/31 01:27:55;;;;;;;3.22;2.92;;;15.50;99.90;;;;;;5003418;28;20389;-80
2023/05/31 01:30:22;;;;;;;3.92;2.80;;;15.00;99.90;;;;;;5016622;28;20401;-79
2023/05/31 01:32:48;;;;;;;3.90;3.00;;;15.50;99.90;;;;;;5008963;28;20394;-80
2023/05/31 01:35:14;;;;;;;3.83;2.90;;;15.30;99.90;;;;;;5012147;28;21173;-80
2023/05/31 01:37:40;;;;;;;4.10;2.97;;;14.90;99.90;;;;;;5009475;28;20387;-80
2023/05/31 01:40:07;;;;;;;5.80;3.33;;;14.80;99.90;;;;;;5013634;28;20511;-81
2023/05/31 01:42:34;;;;;;;5.78;3.30;;;15.20;99.90;;;;;;5010669;28;20402;-80
2023/05/31 01:45:00;;;;;;;4.53;2.60;;;14.60;99.90;;;;;;5017017;28;20401;-78
2023/05/31 01:47:26;;;;;;;3.60;2.70;;;15.10;99.90;;;;;;5021900;28;20384;-80
2023/05/31 01:49:52;;;;;;;5.07;2.75;;;14.80;99.90;;;;;;5016060;28;20751;-80
2023/05/31 01:52:20;;;;;;;3.40;2.80;;;15.20;99.90;;;;;;5012158;28;20425;-80
2023/05/31 01:54:46;;;;;;;4.10;2.80;;;15.00;99.90;;;;;;4994960;28;20406;-81
2023/05/31 01:57:13;;;;;;;3.55;2.50;;;14.70;99.90;;;;;;5003304;28;20401;-80
2023/05/31 01:59:40;;;;;;;4.53;2.90;;;15.10;99.90;;;;;;5015474;28;20400;-80
2023/05/31 02:02:06;;;;;;;4.50;3.10;;;14.80;99.90;;;;;;5014196;28;20465;-80
2023/05/31 02:04:32;;;;;;;4.85;3.20;;;15.00;99.90;;;;;;5015281;28;20396;-81
2023/05/31 02:07:00;;;;;;;5.77;3.10;;;14.80;99.90;;;;;;5019977;28;20391;-80
2023/05/31 02:09:25;;;;;;;4.03;2.85;;;15.00;99.90;;;;;;5015058;28;20381;-80
2023/05/31 02:11:51;;;;;;;3.25;2.85;;;15.00;99.90;;;;;;5015888;28;20393;-80
2023/05/31 02:14:16;;;;;;;3.87;2.90;;;14.80;99.90;;;;;;5003859;28;20398;-80
2023/05/31 02:16:42;;;;;;;3.93;2.80;;;14.50;99.90;;;;;;5009845;28;20509;-80
2023/05/31 02:19:08;;;;;;;4.50;3.30;;;14.60;99.90;;;;;;5005473;28;20810;-79
2023/05/31 02:21:36;;;;;;;4.25;3.13;;;14.60;99.90;;;;;;5015106;28;20407;-80
2023/05/31 02:24:02;;;;;;;4.90;2.90;;;14.20;99.90;;;;;;5015996;28;20710;-80
2023/05/31 02:26:27;;;;;;;4.63;3.40;;;14.40;99.90;;;;;;5013619;28;20389;-80
2023/05/31 02:28:53;;;;;;;4.70;3.40;;;14.40;99.90;;;;;;5015848;28;20385;-80
2023/05/31 02:31:19;;;;;;;4.45;3.10;;;13.70;99.90;;;;;;5015365;28;20450;-81
2023/05/31 02:33:44;;;;;;;5.30;3.27;;;15.20;99.90;;;;;;5014477;28;20385;-80
2023/05/31 02:36:11;;;;;;;4.00;3.20;;;14.00;99.90;;;;;;5015814;28;20389;-80
2023/05/31 02:38:37;;;;;;;4.20;3.13;;;14.10;99.90;;;;;;5015334;28;20376;-80
2023/05/31 02:41:02;;;;;;;5.47;3.00;;;14.00;99.90;;;;;;5013930;28;20405;-80
2023/05/31 02:43:30;;;;;;;3.50;3.00;;;13.70;99.90;;;;;;5014098;28;20416;-80
2023/05/31 02:45:55;;;;;;;4.82;3.33;;;14.20;99.90;;;;;;5014205;28;20466;-80
2023/05/31 02:48:21;;;;;;;5.53;2.83;;;14.00;99.90;;;;;;5016009;28;20393;-80
2023/05/31 02:50:47;;;;;;;5.53;3.25;;;13.80;99.90;;;;;;5014155;28;20796;-80
2023/05/31 02:53:12;;;;;;;5.40;3.40;;;13.70;99.90;;;;;;5016621;28;20859;-80
2023/05/31 02:55:38;;;;;;;3.90;3.30;;;13.70;99.90;;;;;;5014449;28;20397;-80
2023/05/31 02:58:03;;;;;;;3.88;3.08;;;13.70;99.90;;;;;;5023585;28;20397;-80
2023/05/31 03:00:29;;;;;;;5.40;3.50;;;13.80;99.90;;;;;;5024652;28;20400;-79
2023/05/31 03:02:54;;;;;;;5.87;3.57;;;13.10;99.90;;;;;;5022895;28;20392;-80
2023/05/31 03:05:20;;;;;;;4.78;3.50;;;13.50;99.90;;;;;;5020211;28;20388;-80
2023/05/31 03:07:46;;;;;;;4.68;3.45;;;13.70;99.90;;;;;;5019935;28;20471;-80
2023/05/31 03:10:12;;;;;;;5.60;3.50;;;13.50;99.90;;;;;;5020968;28;20393;-80
2023/05/31 03:12:37;;;;;;;4.72;3.30;;;14.40;99.90;;;;;;5022699;28;20389;-80
2023/05/31 03:15:04;;;;;;;5.50;3.13;;;13.60;99.90;;;;;;5023896;28;20827;-79
2023/05/31 03:17:30;;;;;;;5.72;3.40;;;13.40;99.90;;;;;;5023259;28;20423;-79
2023/05/31 03:19:56;;;;;;;4.57;3.53;;;13.20;99.90;;;;;;5025579;28;20415;-81
2023/05/31 03:22:23;;;;;;;3.80;3.40;;;13.30;99.90;;;;;;5025864;28;20388;-80
2023/05/31 03:24:48;;;;;;;3.90;3.10;;;13.30;99.90;;;;;;5019986;28;20535;-80
2023/05/31 03:27:14;;;;;;;4.60;3.20;;;13.20;99.90;;;;;;5013033;28;20428;-80
2023/05/31 03:29:42;;;;;;;4.10;3.40;;;13.20;99.90;;;;;;5016582;28;20397;-79
2023/05/31 03:32:07;;;;;;;4.95;3.40;;;13.00;99.90;;;;;;5020544;28;20381;-80
2023/05/31 03:34:34;;;;;;;4.10;3.30;;;13.30;99.90;;;;;;5014019;28;20443;-80
2023/05/31 03:37:00;;;;;;;5.55;3.50;;;13.20;99.90;;;;;;5015022;28;20747;-81
2023/05/31 03:39:26;;;;;;;4.22;3.60;;;13.00;99.90;;;;;;5017506;28;20384;-80
2023/05/31 03:41:51;;;;;;;4.10;3.70;;;12.90;99.90;;;;;;5018208;28;21235;-80
2023/05/31 03:44:17;;;;;;;5.90;3.80;;;13.10;99.90;;;;;;5027141;28;20392;-80
2023/05/31 03:46:42;;;;;;;6.37;3.70;;;12.70;99.90;;;;;;5039204;28;20499;-79
2023/05/31 03:49:08;;;;;;;4.30;3.00;;;12.80;99.90;;;;;;5039207;28;20404;-79
2023/05/31 03:51:33;;;;;;;4.90;3.30;;;12.60;99.90;;;;;;5037768;28;20411;-81
2023/05/31 03:53:59;;;;;;;5.53;3.60;;;12.80;99.90;;;;;;5021571;28;20407;-80
2023/05/31 03:56:25;;;;;;;4.40;3.65;;;12.40;99.90;;;;;;5020230;28;20389;-80
2023/05/31 03:58:50;;;;;;;5.35;4.10;;;12.40;99.90;;;;;;5021083;28;20419;-80
2023/05/31 04:01:17;;;;;;;4.40;3.40;;;12.40;99.90;;;;;;5021739;28;20412;-79
2023/05/31 04:03:43;;;;;;;4.55;3.80;;;12.70;99.90;;;;;;5019213;28;20425;-80
2023/05/31 04:06:09;;;;;;;3.97;3.50;;;12.80;99.90;;;;;;5019744;28;20393;-80
2023/05/31 04:08:35;;;;;;;4.00;3.50;;;12.70;99.90;;;;;;5019090;28;20415;-80
2023/05/31 04:11:01;;;;;;;4.75;3.90;;;12.90;99.90;;;;;;5019990;28;20467;-79
2023/05/31 04:13:26;;;;;;;4.43;3.35;;;12.50;99.90;;;;;;5018045;28;20395;-78
2023/05/31 04:15:52;;;;;;;5.17;3.63;;;12.60;99.90;;;;;;5019340;28;20389;-84
2023/05/31 04:18:17;;;;;;;4.53;3.30;;;12.50;99.90;;;;;;5022219;28;20401;-78
2023/05/31 04:20:43;;;;;;;4.32;3.83;;;12.50;99.90;;;;;;5022538;28;20405;-78
2023/05/31 04:23:08;;;;;;;4.47;3.33;;;12.60;99.90;;;;;;5021969;28;20447;-79
2023/05/31 04:25:34;;;;;;;4.87;3.50;;;12.60;99.90;;;;;;5017648;28;20432;-79
2023/05/31 04:27:59;;;;;;;5.20;3.92;;;12.40;99.90;;;;;;5018864;28;20400;-79
2023/05/31 04:30:26;;;;;;;4.23;3.47;;;12.70;99.90;;;;;;5018626;28;20460;-80
2023/05/31 04:32:52;;;;;;;5.78;3.60;;;14.20;99.90;;;;;;5020783;28;20395;-81
2023/05/31 04:35:18;;;;;;;5.50;3.75;;;12.50;99.90;;;;;;5019338;28;20407;-80
2023/05/31 04:37:44;;;;;;;5.05;3.42;;;12.60;99.90;;;;;;5018755;28;20391;-81
2023/05/31 04:40:10;;;;;;;3.50;3.17;;;12.90;99.90;;;;;;5018854;28;20479;-82
2023/05/31 04:42:40;;;;;;;4.50;3.53;;;12.80;99.90;;;;;;5019672;28;20446;-81
2023/05/31 04:45:07;;;;;;;5.40;3.40;;;12.70;99.90;;;;;;5018155;28;20475;-81
2023/05/31 04:47:35;;;;;;;5.82;4.20;;;12.80;99.90;;;;;;5018531;28;20389;-81
2023/05/31 04:50:01;;;;;;;4.50;3.88;;;13.00;99.90;;;;;;5019501;28;20427;-81
2023/05/31 04:52:32;;;;;;;7.38;4.00;;;12.70;99.90;;;;;;5019443;28;20428;-79
2023/05/31 04:54:58;;;;;;;4.43;3.40;;;12.60;99.90;;;;;;5016756;28;20396;-80
2023/05/31 04:57:28;;;;;;;4.40;3.75;;;12.60;99.90;;;;;;5015740;28;20397;-79
2023/05/31 04:59:56;;;;;;;4.72;3.60;;;12.70;99.90;;;;;;5002724;28;20420;-80
2023/05/31 05:02:22;;;;;;;8.17;3.63;;;12.80;99.90;;;;;;5017262;28;20396;-79
2023/05/31 05:04:48;;;;;;;4.78;4.00;;;13.40;99.90;;;;;;5005610;28;20395;-79
2023/05/31 05:07:14;;;;;;;4.07;3.67;;;14.00;99.90;;;;;;4997844;28;20387;-80
2023/05/31 05:09:40;;;;;;;4.70;3.50;;;12.90;99.90;;;;;;5014443;28;20809;-80
2023/05/31 05:12:06;;;;;;;4.10;3.60;;;13.00;99.90;;;;;;5018602;28;20416;-79
2023/05/31 05:14:32;;;;;;;5.15;3.95;;;13.40;99.90;;;;;;5016428;28;20446;-78
2023/05/31 05:16:57;;;;;;;5.80;3.60;;;13.40;99.90;;;;;;5016224;28;20417;-80
2023/05/31 05:19:23;;;;;;;4.57;3.87;;;13.30;99.90;;;;;;5015621;28;20400;-80
2023/05/31 05:21:48;;;;;;;5.75;3.90;;;13.50;99.90;;;;;;5017662;28;20416;-80
2023/05/31 05:24:15;;;;;;;4.20;3.80;;;13.40;99.90;;;;;;5017629;28;20804;-80
2023/05/31 05:26:41;;;;;;;6.18;4.10;;;13.80;99.90;;;;;;5015583;28;20826;-80
2023/05/31 05:29:06;;;;;;;7.00;4.20;;;11.90;99.90;;;;;;5018068;28;20385;-81
2023/05/31 05:31:32;;;;;;;7.00;4.38;;;13.60;99.90;;;;;;5017712;28;20401;-79
2023/05/31 05:34:02;;;;;;;7.15;4.85;;;13.70;99.90;;;;;;5018153;28;20428;-80
2023/05/31 05:36:33;;;;;;;6.40;3.70;;;13.70;99.90;;;;;;5017536;28;20419;-80
2023/05/31 05:39:03;;;;;;;6.30;4.57;;;14.10;99.90;;;;;;5019786;28;20393;-81
2023/05/31 05:41:30;;;;;;;4.73;3.93;;;14.20;99.90;;;;;;5017960;28;20405;-81
2023/05/31 05:43:56;;;;;;;10.57;5.20;;;14.40;99.90;;;;;;5017190;28;20389;-81
2023/05/31 05:46:21;;;;;;;7.70;4.40;;;14.40;99.90;;;;;;5019010;28;20464;-80
2023/05/31 05:48:47;;;;;;;5.40;3.53;;;14.70;99.90;;;;;;5018581;28;20388;-80
2023/05/31 05:51:16;;;;;;;12.68;4.82;;;15.00;99.90;;;;;;5020093;28;20407;-80
2023/05/31 05:53:41;;;;;;;12.45;5.70;;;15.50;99.90;;;;;;5018622;28;20392;-82
2023/05/31 05:56:07;;;;;;;9.43;3.60;;;14.70;99.90;;;;;;5019209;28;20389;-81
2023/05/31 05:58:32;;;;;;;3.60;2.80;;;15.20;99.90;;;;;;5019212;28;20415;-79
2023/05/31 06:00:58;;;;;;;5.47;2.57;;;15.30;99.90;;;;;;5017607;28;20417;-81
2023/05/31 06:03:23;;;;;;;5.80;2.70;;;15.20;99.90;;;;;;5018927;28;20462;-81
2023/05/31 06:05:49;;;;;;;3.50;2.70;;;15.60;99.90;;;;;;4996873;28;20485;-80
2023/05/31 06:08:15;;;;;;;3.55;2.85;;;15.50;99.90;;;;;;4998884;28;20391;-80
2023/05/31 06:10:40;;;;;;;4.60;2.60;;;15.80;99.90;;;;;;5011004;28;20400;-81
2023/05/31 06:13:06;;;;;;;6.33;2.83;;;16.00;99.90;;;;;;5017189;28;20401;-80
2023/05/31 06:15:32;;;;;;;3.97;2.85;;;15.80;99.90;;;;;;5024956;28;20397;-78
2023/05/31 06:17:58;;;;;;;4.28;2.75;;;15.80;99.90;;;;;;5017577;28;20830;-79
2023/05/31 06:20:23;;;;;;;3.95;2.60;;;16.20;99.90;;;;;;5014749;28;20438;-80
2023/05/31 06:22:51;;;;;;;3.83;2.77;;;15.50;99.90;;;;;;5015853;28;20887;-79
2023/05/31 06:25:17;;;;;;;4.18;2.60;;;16.00;99.90;;;;;;5014964;28;20446;-79
2023/05/31 06:27:45;;;;;;;3.58;2.70;;;16.00;99.90;;;;;;5013485;28;20767;-80
2023/05/31 06:30:12;;;;;;;3.70;2.42;;;16.10;99.90;;;;;;5015529;28;20412;-80
2023/05/31 06:32:37;;;;;;;2.97;2.30;;;16.50;99.90;;;;;;5014703;28;20388;-79
2023/05/31 06:35:03;;;;;;;3.40;2.30;;;16.40;99.90;;;;;;5015365;28;20400;-80
2023/05/31 06:37:29;;;;;;;4.85;2.78;;;16.60;99.90;;;;;;5014282;28;20389;-80
2023/05/31 06:39:55;;;;;;;5.50;2.70;;;16.60;99.90;;;;;;5014790;28;20427;-80
2023/05/31 06:42:21;;;;;;;3.20;2.50;;;16.80;99.90;;;;;;5016194;28;20389;-79
2023/05/31 06:44:47;;;;;;;3.95;2.75;;;17.20;99.90;;;;;;5014646;28;20431;-80
2023/05/31 06:47:12;;;;;;;4.28;2.50;;;17.00;99.90;;;;;;5013571;28;20381;-79
2023/05/31 06:49:38;;;;;;;4.60;2.50;;;17.10;99.90;;;;;;5013312;28;20899;-78
2023/05/31 06:52:04;;;;;;;3.10;2.30;;;17.00;99.90;;;;;;5015974;28;20534;-80
2023/05/31 06:54:31;;;;;;;4.00;2.70;;;17.20;99.90;;;;;;5014309;28;20467;-80
2023/05/31 06:56:56;;;;;;;2.67;2.10;;;17.50;99.90;;;;;;5009364;28;20398;-80
2023/05/31 06:59:22;;;;;;;4.28;2.40;;;16.20;97.30;;;;;;5014005;28;20458;-82
2023/05/31 07:01:48;;;;;;;4.70;3.20;;;16.90;99.90;;;;;;5006065;28;20408;-80
2023/05/31 07:04:13;;;;;;;4.67;2.90;;;17.30;99.90;;;;;;5001621;28;20411;-80
2023/05/31 07:06:39;;;;;;;4.50;2.63;;;17.30;99.90;;;;;;5016611;28;20401;-80
2023/05/31 07:09:05;;;;;;;6.55;2.63;;;17.20;99.90;;;;;;5013695;28;20401;-79
2023/05/31 07:14:10;;;;;;;4.43;2.53;;;;;;;;;;5049628;28;20425;-80
2023/05/31 07:16:54;;;;;;;3.30;2.30;;;17.50;99.90;;;;;;5031991;28;20465;-81
2023/05/31 07:19:20;;;;;;;3.70;2.10;;;17.60;99.90;;;;;;5052913;28;20415;-79
2023/05/31 07:21:46;;;;;;;3.53;2.80;;;15.40;99.90;;;;;;5039662;28;20432;-81
2023/05/31 07:24:11;;;;;;;4.65;2.65;;;16.00;99.90;;;;;;5010996;28;20436;-81
2023/05/31 07:26:37;;;;;;;4.40;2.70;;;17.70;99.90;;;;;;5006343;28;20538;-80
2023/05/31 07:29:02;;;;;;;4.65;2.70;;;17.90;99.90;;;;;;5029794;28;20375;-80
2023/05/31 07:31:28;;;;;;;4.00;2.67;;;17.70;99.90;;;;;;5039192;28;20482;-81
2023/05/31 07:33:55;;;;;;;3.90;2.70;;;18.60;99.90;;;;;;5047054;28;20402;-82
2023/05/31 07:36:24;;;;;;;5.22;2.70;;;17.80;99.90;;;;;;5044159;28;20395;-82
2023/05/31 07:38:50;;;;;;;5.20;2.90;;;17.60;99.90;;;;;;5041080;28;20478;-80
2023/05/31 07:41:15;;;;;;;3.40;2.40;;;18.20;99.90;;;;;;5036910;28;20559;-80
2023/05/31 07:43:43;;;;;;;5.20;2.72;;;17.60;99.90;;;;;;5019944;28;20399;-80
2023/05/31 07:46:08;;;;;;;4.32;2.40;;;18.40;99.90;;;;;;5020653;28;20394;-82
2023/05/31 07:48:34;;;;;;;4.53;2.50;;;18.40;99.90;;;;;;5042868;28;20386;-83
2023/05/31 07:51:02;;;;;;;3.55;2.70;;;18.60;99.90;;;;;;5028697;28;20742;-83
2023/05/31 07:53:28;;;;;;;3.00;2.70;;;18.30;99.90;;;;;;5023559;28;20976;-80
2023/05/31 07:55:54;;;;;;;3.92;2.70;;;17.70;99.90;;;;;;5018704;28;20430;-83
2023/05/31 07:58:19;;;;;;;4.43;2.60;;;18.50;99.90;;;;;;5038747;28;20387;-81
2023/05/31 08:00:47;;;;;;;4.00;2.90;;;18.40;99.90;;;;;;5021957;28;20426;-81
2023/05/31 08:03:13;;;;;;;3.40;2.58;;;18.70;99.90;;;;;;5041145;28;20430;-80
2023/05/31 08:05:39;;;;;;;3.70;2.70;;;18.40;99.90;;;;;;5001250;28;20400;-80
2023/05/31 08:08:05;;;;;;;3.38;2.80;;;18.60;99.90;;;;;;5019498;28;20883;-85
2023/05/31 08:10:31;;;;;;;5.07;3.00;;;18.80;99.90;;;;;;5002188;28;20392;-83
2023/05/31 08:12:57;;;;;;;3.33;2.40;;;18.80;99.90;;;;;;5038085;28;20417;-83
2023/05/31 08:15:22;;;;;;;6.35;2.65;;;19.10;99.90;;;;;;5031830;28;20391;-81
2023/05/31 08:17:48;;;;;;;3.83;2.40;;;18.80;99.90;;;;;;5030524;28;20395;-80
2023/05/31 08:20:16;;;;;;;3.90;2.50;;;18.40;99.90;;;;;;5042004;28;20486;-83
2023/05/31 08:22:43;;;;;;;4.03;2.10;;;18.70;99.90;;;;;;5036143;28;20403;-82
2023/05/31 08:25:12;;;;;;;4.47;2.65;;;20.30;99.90;;;;;;5035615;28;20387;-82
2023/05/31 08:27:39;;;;;;;3.70;2.60;;;19.00;99.90;;;;;;5036393;28;20731;-82
2023/05/31 08:30:06;;;;;;;8.55;2.70;;;19.50;99.90;;;;;;5036507;28;20445;-82
2023/05/31 08:32:32;;;;;;;5.18;2.60;;;19.70;99.90;;;;;;5018882;28;20400;-82
2023/05/31 08:34:57;;;;;;;3.40;2.60;;;21.70;99.90;;;;;;5019155;28;20409;-81
2023/05/31 08:37:23;;;;;;;5.30;3.05;;;22.60;99.90;;;;;;5041325;28;20406;-82
2023/05/31 08:39:48;;;;;;;4.47;2.20;;;21.00;99.90;;;;;;5041316;28;20402;-81
2023/05/31 08:42:25;;;;;;;4.38;2.50;;;20.00;99.90;;;;;;5041504;28;20391;-81
2023/05/31 08:44:51;;;;;;;3.53;2.33;;;19.90;99.90;;;;;;5039091;28;20438;-85
2023/05/31 08:47:28;;;;;;;3.45;2.80;;;20.20;99.90;;;;;;5019879;28;20877;-82
2023/05/31 08:49:55;;;;;;;3.90;2.80;;;20.20;41.50;;;;;;5020482;28;20419;-83
2023/05/31 08:52:21;;;;;;;5.60;2.90;;;19.80;99.90;;;;;;5020732;28;20379;-82
2023/05/31 08:54:48;;;;;;;6.80;2.70;;;20.40;99.90;;;;;;5038148;28;20390;-82
2023/05/31 08:57:15;;;;;;;3.30;2.58;;;20.20;99.90;;;;;;5037676;28;20383;-83
2023/05/31 08:59:43;;;;;;;3.33;2.40;;;20.40;99.90;;;;;;5039832;28;20405;-83
2023/05/31 09:02:10;;;;;;;4.30;3.00;;;20.40;99.90;;;;;;5022172;28;20383;-83
2023/05/31 09:04:36;;;;;;;5.65;3.10;;;23.50;99.90;;;;;;5011599;28;20407;-84
2023/05/31 09:07:01;;;;;;;4.53;3.00;;;20.80;99.90;;;;;;4999702;28;20906;-84
2023/05/31 09:09:27;;;;;;;3.30;2.95;;;21.10;99.90;;;;;;5016336;28;20604;-81
2023/05/31 09:11:52;;;;;;;3.97;2.90;;;21.20;99.90;;;;;;5009186;28;20438;-83
2023/05/31 09:14:18;;;;;;;4.30;2.70;;;21.40;99.90;;;;;;5035971;28;20557;-84
2023/05/31 09:16:44;;;;;;;4.18;3.30;;;22.00;34.30;;;;;;5022557;28;20393;-81
2023/05/31 09:19:10;;;;;;;3.70;3.30;;;23.70;99.90;;;;;;5038575;28;20423;-81
2023/05/31 09:21:40;;;;;;;3.20;2.77;;;21.80;99.90;;;;;;5041957;28;20403;-82
2023/05/31 09:24:06;;;;;;;5.23;3.30;;;22.10;99.90;;;;;;5024580;28;20429;-80
2023/05/31 09:26:32;;;;;;;5.10;3.40;;;22.40;99.90;;;;;;5019860;28;20391;-81
2023/05/31 09:28:58;;;;;;;3.63;2.78;;;22.30;1.00;;;;;;5012460;28;20400;-80
2023/05/31 09:31:25;;;;;;;5.50;2.80;;;22.50;39.70;;;;;;5037840;28;20406;-80
2023/05/31 09:33:56;;;;;;;4.05;3.25;;;22.50;1.00;;;;;;5011811;28;20404;-84
2023/05/31 09:36:27;;;;;;;4.10;3.10;;;24.40;82.60;;;;;;5002192;28;20419;-81
2023/05/31 09:39:04;;;;;;;3.80;2.90;;;23.70;1.00;;;;;;5023458;28;20484;-81
2023/05/31 09:41:31;;;;;;;4.32;3.50;;;23.00;99.90;;;;;;5025879;28;20469;-80
2023/05/31 09:43:56;;;;;;;4.93;2.80;;;23.60;99.90;;;;;;5022030;28;20387;-81
2023/05/31 09:46:23;;;;;;;3.80;3.10;;;23.20;1.00;;;;;;5038357;28;20382;-80
2023/05/31 09:49:06;;;;;;;4.60;3.30;;;23.20;1.00;;;;;;5020883;28;20398;-81
2023/05/31 09:51:33;;;;;;;5.22;2.83;;;23.20;1.00;;;;;;5033678;28;20405;-83
2023/05/31 09:54:09;;;;;;;4.68;3.22;;;23.70;1.00;;;;;;5021831;28;20401;-81
2023/05/31 09:56:40;;;;;;;3.90;2.70;;;26.20;1.00;;;;;;5020552;28;20403;-83
2023/05/31 09:59:07;;;;;;;3.72;3.10;;;23.60;1.00;;;;;;5017844;28;20395;-82
2023/05/31 10:01:33;;;;;;;3.70;3.30;;;23.10;1.00;;;;;;5026225;28;20400;-82
2023/05/31 10:04:00;;;;;;;3.53;3.22;;;23.10;1.00;;;;;;5010773;28;20973;-84
2023/05/31 10:06:26;;;;;;;3.60;3.20;;;23.40;1.00;;;;;;5028650;28;20394;-83
2023/05/31 10:08:52;;;;;;;4.85;2.92;;;23.50;1.00;;;;;;5045734;28;20390;-85
2023/05/31 10:11:26;;;;;;;5.57;2.97;;;24.40;1.00;;;;;;5046956;28;20502;-83
2023/05/31 10:13:56;;;;;;;3.80;3.00;;;23.90;1.00;;;;;;5023472;28;20411;-83
2023/05/31 10:16:24;;;;;;;5.05;3.33;;;23.80;1.00;;;;;;5026216;28;20758;-84
2023/05/31 10:18:52;;;;;;;3.35;2.92;;;24.40;1.00;;;;;;5032802;28;20479;-83
2023/05/31 10:21:24;;;;;;;4.90;3.40;;;24.50;1.00;;;;;;5011174;28;20409;-83
2023/05/31 10:24:02;;;;;;;4.33;3.20;;;27.30;1.00;;;;;;5014334;28;20959;-82
2023/05/31 10:26:56;;;;;;;4.43;2.90;;;24.60;1.00;;;;;;5027412;28;20385;-83
2023/05/31 10:29:30;;;;;;;3.63;3.08;;;25.10;1.00;;;;;;5015440;28;20387;-83
2023/05/31 10:32:11;;;;;;;3.38;3.00;;;26.00;1.00;;;;;;5041846;28;20394;-82
2023/05/31 10:34:37;;;;;;;3.38;3.08;;;24.80;1.00;;;;;;5024489;28;20406;-82
2023/05/31 10:37:05;;;;;;;4.63;3.20;;;24.10;1.00;;;;;;5038944;28;20387;-82
2023/05/31 10:39:58;;;;;;;4.97;2.80;;;25.20;1.00;;;;;;5022299;28;20852;-81
2023/05/31 10:42:33;;;;;;;4.72;3.92;;;25.10;1.00;;;;;;5024968;28;20458;-82
2023/05/31 10:45:29;;;;;;;3.30;2.97;;;25.10;1.00;;;;;;5021887;28;20474;-81
2023/05/31 10:48:06;;;;;;;2.80;2.50;;;25.20;1.00;;;;;;5001363;28;20462;-82
2023/05/31 10:50:32;;;;;;;3.58;3.25;;;25.10;1.00;;;;;;5015461;28;20422;-81
2023/05/31 10:53:10;;;;;;;4.93;3.07;;;25.10;1.00;;;;;;5007747;28;20389;-81
2023/05/31 10:55:43;;;;;;;3.70;3.10;;;25.30;1.00;;;;;;5038767;28;20403;-82
2023/05/31 10:58:30;;;;;;;4.32;3.30;;;25.60;1.00;;;;;;5026736;28;20757;-80
2023/05/31 11:00:57;;;;;;;4.05;2.70;;;25.30;1.00;;;;;;5043262;28;20410;-80
2023/05/31 11:03:27;;;;;;;3.10;2.80;;;25.20;1.00;;;;;;5044160;28;20379;-83
2023/05/31 11:05:59;;;;;;;4.07;2.95;;;25.80;1.00;;;;;;5043497;28;20430;-83
2023/05/31 11:08:25;;;;;;;4.43;3.40;;;26.20;1.00;;;;;;5043859;28;20852;-84
2023/05/31 11:10:51;;;;;;;4.93;3.50;;;28.80;1.00;;;;;;5043540;28;20398;-83
2023/05/31 11:13:17;;;;;;;3.73;3.00;;;26.00;1.00;;;;;;5025958;28;20849;-84
2023/05/31 11:15:44;;;;;;;4.13;3.20;;;25.60;1.00;;;;;;5025209;28;20383;-83
2023/05/31 11:18:23;;;;;;;3.00;2.70;;;26.30;1.00;;;;;;5010188;28;20440;-83
2023/05/31 11:20:49;;;;;;;5.38;3.10;;;26.20;1.00;;;;;;5024982;28;20410;-83
2023/05/31 11:23:27;;;;;;;3.30;2.97;;;26.50;1.00;;;;;;5028701;28;20430;-85
2023/05/31 11:26:15;;;;;;;4.15;3.28;;;26.20;1.00;;;;;;5030000;28;20455;-85
2023/05/31 11:28:56;;;;;;;3.40;2.90;;;27.30;1.00;;;;;;5049617;28;20387;-85
2023/05/31 11:31:49;;;;;;;2.88;2.65;;;27.00;1.00;;;;;;5048828;28;20940;-84
2023/05/31 11:34:24;;;;;;;3.65;2.85;;;28.10;1.00;;;;;;5047198;28;20493;-84
2023/05/31 11:36:50;;;;;;;3.23;2.93;;;28.10;1.00;;;;;;5029722;28;20458;-83
2023/05/31 11:39:20;;;;;;;4.10;2.90;;;30.80;1.00;;;;;;5030698;28;20489;-85
2023/05/31 11:41:46;;;;;;;3.97;3.10;;;29.70;1.00;;;;;;5049350;28;20653;-85
2023/05/31 11:44:13;;;;;;;5.40;2.77;;;32.10;1.00;;;;;;5029702;28;20498;-84
2023/05/31 11:46:44;;;;;;;3.70;2.70;;;29.60;1.00;;;;;;5029481;28;20394;-85
2023/05/31 11:49:09;;;;;;;3.33;2.90;;;30.00;1.00;;;;;;5025212;28;20784;-84
2023/05/31 11:51:36;;;;;;;3.90;2.50;;;29.00;1.00;;;;;;5005477;28;20415;-85
2023/05/31 11:54:03;;;;;;;3.00;2.60;;;29.60;1.00;;;;;;5002883;28;20393;-85
2023/05/31 11:56:36;;;;;;;4.93;2.65;;;28.50;1.00;;;;;;5021028;28;20875;-85
2023/05/31 11:59:02;;;;;;;3.00;2.70;;;30.40;1.00;;;;;;5018087;28;20451;-86
2023/05/31 12:01:28;;;;;;;2.90;2.60;;;30.70;1.00;;;;;;5020368;28;21065;-82
2023/05/31 12:04:00;;;;;;;2.93;2.50;;;30.80;1.00;;;;;;5023048;28;20446;-85
2023/05/31 12:06:26;;;;;;;3.85;2.67;;;28.10;1.00;;;;;;5026247;28;20391;-84
2023/05/31 12:08:52;;;;;;;2.60;2.40;;;32.10;1.00;;;;;;5026680;28;20379;-85
2023/05/31 12:11:18;;;;;;;5.22;2.50;;;29.30;1.00;;;;;;5023175;28;20824;-84
2023/05/31 12:13:44;;;;;;;3.67;2.90;;;31.20;1.00;;;;;;5025877;28;20499;-82
2023/05/31 12:16:09;;;;;;;4.60;2.70;;;30.80;1.00;;;;;;5027726;28;20381;-85
2023/05/31 12:18:36;;;;;;;4.57;3.00;;;29.30;1.00;;;;;;5025403;28;20408;-85
2023/05/31 12:21:07;;;;;;;3.58;2.70;;;30.30;1.00;;;;;;5024068;28;20424;-83
2023/05/31 12:23:50;;;;;;;3.05;2.60;;;30.30;1.00;;;;;;5030492;28;20387;-84
2023/05/31 12:26:15;;;;;;;2.90;2.60;;;30.30;1.00;;;;;;5049366;28;20395;-84
2023/05/31 12:28:42;;;;;;;3.35;2.80;;;31.90;1.00;;;;;;5045841;28;20390;-84
2023/05/31 12:31:08;;;;;;;3.63;2.58;;;28.60;1.00;;;;;;5044664;28;20457;-83
2023/05/31 12:33:36;;;;;;;4.20;2.50;;;29.30;1.00;;;;;;5044285;28;21046;-81
2023/05/31 12:36:03;;;;;;;5.78;2.95;;;30.20;1.00;;;;;;5038282;28;20978;-84
2023/05/31 12:38:30;;;;;;;3.38;2.60;;;31.10;1.00;;;;;;5024547;28;20414;-84
2023/05/31 12:40:55;;;;;;;4.03;2.65;;;30.20;1.00;;;;;;5020728;28;20407;-83
2023/05/31 12:43:21;;;;;;;2.80;2.60;;;34.70;1.00;;;;;;5039886;28;20437;-83
2023/05/31 12:45:46;;;;;;;3.30;2.30;;;30.00;1.00;;;;;;5021881;28;20757;-83
2023/05/31 12:48:12;;;;;;;5.47;2.90;;;31.40;1.00;;;;;;5020679;28;20430;-84
2023/05/31 12:50:47;;;;;;;5.30;2.50;;;33.40;1.00;;;;;;5023802;28;20392;-84
2023/05/31 12:53:21;;;;;;;3.15;2.63;;;31.40;1.00;;;;;;5018488;28;20391;-84
2023/05/31 12:55:47;;;;;;;4.18;2.63;;;31.20;1.00;;;;;;5023926;28;21181;-85